createdAt,value
2024-01-29T00:01:27.242Z,2.80
2024-01-29T00:03:54.297Z,2.80
2024-01-29T00:06:21.408Z,2.80
2024-01-29T00:08:48.350Z,2.90
2024-01-29T00:11:15.761Z,2.80
2024-01-29T00:13:42.689Z,2.80
2024-01-29T00:16:09.653Z,2.80
2024-01-29T00:18:36.820Z,2.90
2024-01-29T00:21:03.861Z,2.90
2024-01-29T00:23:31.637Z,2.80
2024-01-29T00:25:58.626Z,1.90
2024-01-29T00:28:26.077Z,2.70
2024-01-29T00:30:53.028Z,2.80
2024-01-29T00:33:20.559Z,2.70
2024-01-29T00:35:47.578Z,2.70
2024-01-29T00:38:14.513Z,2.70
2024-01-29T00:40:41.451Z,2.60
2024-01-29T00:43:08.539Z,2.60
2024-01-29T00:45:35.494Z,2.60
2024-01-29T00:48:02.557Z,2.60
2024-01-29T00:50:29.472Z,2.50
2024-01-29T00:52:56.474Z,2.50
2024-01-29T00:55:23.361Z,2.40
2024-01-29T00:57:50.310Z,2.40
2024-01-29T01:00:17.543Z,2.40
2024-01-29T01:02:44.471Z,2.30
2024-01-29T01:05:11.601Z,2.40
2024-01-29T01:07:38.611Z,2.40
2024-01-29T01:10:06.193Z,2.30
2024-01-29T01:12:33.249Z,2.30
2024-01-29T01:15:00.192Z,2.40
2024-01-29T01:17:27.171Z,2.40
2024-01-29T01:19:54.189Z,2.40
2024-01-29T01:22:21.195Z,2.40
2024-01-29T01:24:48.149Z,2.40
2024-01-29T01:27:15.077Z,2.40
2024-01-29T01:29:41.958Z,2.30
2024-01-29T01:32:08.843Z,2.40
2024-01-29T01:34:35.812Z,2.40
2024-01-29T01:37:02.804Z,2.40
2024-01-29T01:39:29.789Z,2.40
2024-01-29T01:41:56.765Z,2.30
2024-01-29T01:44:23.687Z,2.30
2024-01-29T01:46:50.823Z,2.40
2024-01-29T01:49:18.199Z,2.30
2024-01-29T01:51:46.013Z,2.30
2024-01-29T01:54:14.761Z,2.30
2024-01-29T01:56:41.772Z,2.40
2024-01-29T01:59:10.243Z,2.30
2024-01-29T02:01:37.447Z,2.20
2024-01-29T02:04:05.301Z,2.30
2024-01-29T02:06:33.527Z,2.30
2024-01-29T02:09:01.051Z,2.40
2024-01-29T02:11:27.996Z,2.40
2024-01-29T02:13:54.868Z,2.40
2024-01-29T02:16:21.771Z,2.30
2024-01-29T02:18:48.742Z,2.40
2024-01-29T02:21:15.804Z,2.50
2024-01-29T02:23:46.709Z,2.70
2024-01-29T02:26:14.259Z,2.60
2024-01-29T02:28:41.314Z,2.60
2024-01-29T02:31:08.310Z,2.60
2024-01-29T02:33:35.473Z,2.60
2024-01-29T02:36:02.522Z,2.70
2024-01-29T02:38:29.442Z,2.60
2024-01-29T02:40:56.380Z,2.60
2024-01-29T02:43:24.151Z,2.60
2024-01-29T02:45:51.102Z,2.70
2024-01-29T02:48:18.195Z,2.60
2024-01-29T02:50:45.186Z,2.60
2024-01-29T02:53:12.154Z,2.50
2024-01-29T02:55:39.103Z,2.50
2024-01-29T02:58:06.095Z,2.60
2024-01-29T03:00:33.308Z,2.50
2024-01-29T03:03:00.529Z,2.50
2024-01-29T03:05:27.450Z,2.50
2024-01-29T03:07:54.579Z,2.50
2024-01-29T03:10:21.811Z,2.60
2024-01-29T03:12:48.901Z,2.50
2024-01-29T03:15:15.898Z,2.50
2024-01-29T03:17:42.793Z,2.50
2024-01-29T03:20:10.118Z,2.50
2024-01-29T03:22:37.081Z,2.50
2024-01-29T03:25:04.315Z,2.60
2024-01-29T03:27:31.306Z,2.50
2024-01-29T03:29:58.264Z,2.50
2024-01-29T03:32:25.278Z,2.50
2024-01-29T03:34:52.350Z,2.40
2024-01-29T03:37:19.277Z,2.50
2024-01-29T03:39:46.250Z,2.40
2024-01-29T03:42:13.258Z,2.40
2024-01-29T03:44:40.132Z,2.40
2024-01-29T03:47:07.074Z,2.50
2024-01-29T03:49:34.063Z,2.50
2024-01-29T03:52:01.058Z,2.40
2024-01-29T03:54:28.038Z,2.40
2024-01-29T03:56:55.002Z,2.40
2024-01-29T03:59:21.958Z,2.30
2024-01-29T04:01:48.863Z,2.40
2024-01-29T04:04:16.133Z,2.20
2024-01-29T04:06:46.620Z,2.30
2024-01-29T04:09:13.663Z,2.20
2024-01-29T04:11:40.564Z,2.20
2024-01-29T04:14:07.424Z,2.30
2024-01-29T04:16:34.331Z,2.30
2024-01-29T04:19:01.366Z,2.20
2024-01-29T04:21:28.403Z,2.20
2024-01-29T04:23:55.392Z,2.20
2024-01-29T04:26:22.286Z,2.20
2024-01-29T04:28:49.192Z,2.10
2024-01-29T04:31:16.246Z,2.20
2024-01-29T04:33:44.419Z,2.10
2024-01-29T04:36:14.550Z,2.20
2024-01-29T04:38:41.584Z,2.30
2024-01-29T04:41:08.467Z,2.20
2024-01-29T04:43:35.371Z,2.20
2024-01-29T04:46:02.324Z,2.20
2024-01-29T04:48:29.299Z,2.20
2024-01-29T04:50:56.205Z,2.20
2024-01-29T04:53:23.146Z,2.20
2024-01-29T04:55:50.355Z,2.20
2024-01-29T04:58:17.350Z,2.10
2024-01-29T05:00:44.316Z,2.00
2024-01-29T05:03:11.289Z,2.00
2024-01-29T05:05:38.250Z,2.00
2024-01-29T05:08:05.596Z,2.00
2024-01-29T05:10:32.500Z,2.00
2024-01-29T05:12:59.424Z,1.90
2024-01-29T05:15:26.456Z,1.90
2024-01-29T05:17:53.403Z,1.90
2024-01-29T05:20:20.464Z,1.90
2024-01-29T05:22:47.433Z,1.80
2024-01-29T05:25:14.508Z,1.80
2024-01-29T05:27:41.512Z,1.90
2024-01-29T05:30:09.138Z,1.80
2024-01-29T05:32:36.110Z,1.80
2024-01-29T05:35:03.315Z,1.80
2024-01-29T05:37:30.316Z,1.70
2024-01-29T05:39:57.260Z,1.70
2024-01-29T05:42:24.317Z,1.80
2024-01-29T05:44:51.658Z,1.80
2024-01-29T05:47:18.700Z,1.60
2024-01-29T05:49:45.646Z,1.70
2024-01-29T05:52:12.628Z,1.60
2024-01-29T05:54:39.615Z,1.70
2024-01-29T05:57:06.549Z,1.70
2024-01-29T05:59:33.416Z,1.70
2024-01-29T06:02:00.509Z,1.60
2024-01-29T06:04:27.622Z,1.70
2024-01-29T06:06:54.793Z,1.70
2024-01-29T06:09:21.908Z,1.80
2024-01-29T06:11:48.804Z,1.80
2024-01-29T06:14:15.698Z,1.80
2024-01-29T06:16:42.662Z,1.80
2024-01-29T06:19:09.610Z,1.80
2024-01-29T06:21:36.675Z,1.90
2024-01-29T06:24:03.798Z,1.90
2024-01-29T06:26:30.701Z,1.80
2024-01-29T06:28:57.708Z,1.80
2024-01-29T06:31:25.009Z,1.80
2024-01-29T06:33:53.075Z,1.70
2024-01-29T06:36:21.200Z,1.80
2024-01-29T06:38:48.571Z,1.80
2024-01-29T06:41:25.407Z,1.70
2024-01-29T06:43:53.031Z,1.70
2024-01-29T06:46:20.465Z,1.70
2024-01-29T06:48:47.510Z,1.70
2024-01-29T06:51:14.723Z,1.60
2024-01-29T06:53:42.051Z,1.60
2024-01-29T06:56:09.119Z,1.60
2024-01-29T06:58:36.288Z,1.60
2024-01-29T07:01:03.630Z,1.70
2024-01-29T07:03:30.676Z,1.70
2024-01-29T07:05:58.228Z,1.60
2024-01-29T07:08:25.801Z,1.70
2024-01-29T07:10:52.748Z,1.70
2024-01-29T07:13:19.666Z,1.70
2024-01-29T07:15:46.618Z,1.70
2024-01-29T07:18:13.655Z,1.70
2024-01-29T07:20:40.575Z,1.70
2024-01-29T07:23:08.454Z,1.70
2024-01-29T07:25:36.274Z,1.80
2024-01-29T07:28:03.438Z,1.80
2024-01-29T07:30:30.939Z,1.80
2024-01-29T07:33:02.005Z,1.90
2024-01-29T07:35:29.081Z,1.90
2024-01-29T07:37:56.076Z,2.00
2024-01-29T07:40:23.345Z,2.00
2024-01-29T07:42:50.528Z,2.00
2024-01-29T07:45:17.912Z,2.10
2024-01-29T07:47:44.906Z,2.20
2024-01-29T07:50:12.581Z,2.20
2024-01-29T07:52:39.501Z,2.30
2024-01-29T07:55:06.758Z,2.40
2024-01-29T07:57:33.791Z,2.50
2024-01-29T08:00:00.883Z,2.60
2024-01-29T08:02:28.358Z,2.70
2024-01-29T08:04:55.482Z,2.80
2024-01-29T08:07:22.662Z,3.00
2024-01-29T08:09:49.807Z,3.80
2024-01-29T08:12:16.868Z,4.80
2024-01-29T08:14:43.773Z,4.20
2024-01-29T08:17:10.690Z,3.80
2024-01-29T08:19:37.836Z,3.60
2024-01-29T08:22:05.176Z,3.60
2024-01-29T08:24:32.247Z,3.30
2024-01-29T08:26:59.262Z,3.50
2024-01-29T08:29:26.183Z,3.80
2024-01-29T08:31:53.086Z,4.50
2024-01-29T08:34:20.182Z,5.10
2024-01-29T08:36:47.141Z,5.60
2024-01-29T08:39:14.089Z,6.00
2024-01-29T08:41:41.005Z,6.20
2024-01-29T08:44:07.942Z,6.50
2024-01-29T08:46:34.904Z,6.20
2024-01-29T08:49:01.896Z,6.80
2024-01-29T08:51:28.958Z,6.60
2024-01-29T08:53:55.927Z,6.70
2024-01-29T08:56:23.305Z,6.60
2024-01-29T08:58:50.362Z,6.80
2024-01-29T09:01:17.399Z,6.30
2024-01-29T09:03:44.449Z,6.20
2024-01-29T09:06:11.586Z,6.30
2024-01-29T09:08:38.840Z,6.40
2024-01-29T09:11:05.892Z,6.10
2024-01-29T09:13:32.853Z,6.50
2024-01-29T09:15:59.790Z,6.40
2024-01-29T09:18:26.839Z,6.60
2024-01-29T09:20:53.849Z,6.50
2024-01-29T09:23:20.778Z,6.50
2024-01-29T09:25:47.795Z,6.60
2024-01-29T09:28:14.851Z,6.70
2024-01-29T09:30:43.261Z,6.90
2024-01-29T09:33:18.387Z,6.60
2024-01-29T09:35:48.956Z,6.60
2024-01-29T09:38:15.943Z,6.50
2024-01-29T09:40:46.798Z,6.30
2024-01-29T09:43:17.606Z,6.40
2024-01-29T09:45:44.708Z,6.60
2024-01-29T09:48:16.721Z,6.40
2024-01-29T09:50:45.351Z,6.20
2024-01-29T09:53:12.707Z,6.70
2024-01-29T09:55:39.587Z,6.80
2024-01-29T09:58:06.602Z,6.90
2024-01-29T10:00:34.618Z,7.20
2024-01-29T10:03:05.654Z,7.10
2024-01-29T10:05:33.444Z,7.30
2024-01-29T10:08:00.885Z,7.30
2024-01-29T10:10:28.569Z,7.20
2024-01-29T10:13:09.099Z,7.50
2024-01-29T10:15:36.353Z,7.50
2024-01-29T10:18:03.676Z,7.60
2024-01-29T10:20:30.614Z,8.00
2024-01-29T10:23:01.179Z,8.20
2024-01-29T10:25:29.216Z,8.40
2024-01-29T10:28:14.283Z,8.80
2024-01-29T10:30:42.297Z,8.80
2024-01-29T10:33:10.466Z,9.30
2024-01-29T10:35:38.362Z,9.70
2024-01-29T10:38:07.809Z,9.50
2024-01-29T10:40:36.539Z,9.70
2024-01-29T10:43:03.841Z,10.50
2024-01-29T10:45:35.470Z,10.60
2024-01-29T10:48:13.995Z,10.60
2024-01-29T10:50:42.417Z,10.60
2024-01-29T10:53:10.646Z,11.40
2024-01-29T10:55:38.728Z,11.30
2024-01-29T10:58:06.771Z,11.80
2024-01-29T11:00:35.820Z,11.90
2024-01-29T11:03:05.748Z,12.50
2024-01-29T11:05:33.943Z,12.80
2024-01-29T11:08:04.919Z,12.80
2024-01-29T11:10:33.894Z,13.10
2024-01-29T11:13:02.119Z,12.70
2024-01-29T11:15:29.812Z,13.10
2024-01-29T11:18:00.128Z,13.90
2024-01-29T11:20:27.144Z,14.30
2024-01-29T11:22:57.835Z,14.90
2024-01-29T11:25:27.288Z,14.90
2024-01-29T11:27:55.426Z,15.00
2024-01-29T11:30:24.591Z,15.20
2024-01-29T11:32:53.137Z,15.40
2024-01-29T11:35:27.994Z,15.00
2024-01-29T11:38:07.545Z,15.20
2024-01-29T11:40:41.460Z,14.40
2024-01-29T11:43:22.021Z,15.40
2024-01-29T11:45:51.125Z,14.40
2024-01-29T11:48:20.990Z,15.10
2024-01-29T11:50:53.346Z,15.10
2024-01-29T11:53:22.017Z,15.00
2024-01-29T11:55:49.992Z,15.60
2024-01-29T11:58:18.936Z,14.60
2024-01-29T12:00:47.339Z,15.70
2024-01-29T12:03:16.355Z,15.50
2024-01-29T12:05:43.507Z,15.30
2024-01-29T12:08:18.717Z,15.20
2024-01-29T12:10:47.133Z,15.20
2024-01-29T12:13:15.506Z,15.40
2024-01-29T12:15:42.802Z,15.10
2024-01-29T12:18:20.380Z,15.20
2024-01-29T12:20:49.199Z,15.30
2024-01-29T12:23:17.849Z,15.20
2024-01-29T12:25:45.670Z,14.70
2024-01-29T12:28:13.135Z,15.10
2024-01-29T12:30:41.050Z,14.80
2024-01-29T12:33:08.197Z,14.70
2024-01-29T12:35:36.059Z,15.20
2024-01-29T12:38:12.631Z,14.10
2024-01-29T12:40:40.806Z,14.50
2024-01-29T12:43:09.554Z,14.50
2024-01-29T12:45:36.593Z,13.60
2024-01-29T12:48:14.548Z,13.70
2024-01-29T12:50:41.996Z,13.80
2024-01-29T12:53:13.737Z,13.60
2024-01-29T12:55:41.030Z,13.90
2024-01-29T12:58:08.232Z,14.10
2024-01-29T13:00:35.724Z,14.10
2024-01-29T13:03:04.019Z,14.10
2024-01-29T13:05:32.393Z,13.10
2024-01-29T13:07:59.584Z,12.70
2024-01-29T13:10:26.917Z,12.70
2024-01-29T13:12:54.595Z,12.60
2024-01-29T13:15:21.597Z,12.90
2024-01-29T13:17:48.805Z,13.10
2024-01-29T13:20:16.135Z,12.90
2024-01-29T13:22:43.043Z,12.80
2024-01-29T13:25:10.251Z,12.70
2024-01-29T13:27:38.230Z,12.50
2024-01-29T13:30:05.583Z,12.20
2024-01-29T13:32:33.949Z,11.40
2024-01-29T13:35:00.950Z,11.70
2024-01-29T13:37:27.887Z,11.70
2024-01-29T13:39:54.837Z,11.60
2024-01-29T13:42:21.824Z,11.80
2024-01-29T13:44:48.765Z,11.50
2024-01-29T13:47:15.907Z,11.40
2024-01-29T13:49:42.851Z,11.40
2024-01-29T13:52:09.843Z,11.40
2024-01-29T13:54:37.139Z,11.30
2024-01-29T13:57:04.406Z,11.10
2024-01-29T13:59:31.348Z,11.00
2024-01-29T14:01:58.322Z,10.80
2024-01-29T14:04:25.331Z,10.70
2024-01-29T14:07:01.436Z,10.70
2024-01-29T14:09:28.786Z,10.50
2024-01-29T14:11:56.245Z,10.50
2024-01-29T14:14:27.149Z,10.10
2024-01-29T14:17:00.538Z,10.00
2024-01-29T14:19:27.497Z,10.10
2024-01-29T14:21:54.443Z,9.90
2024-01-29T14:24:21.376Z,9.90
2024-01-29T14:26:48.268Z,9.70
2024-01-29T14:29:15.146Z,9.80
2024-01-29T14:31:42.542Z,9.70
2024-01-29T14:34:09.598Z,9.60
2024-01-29T14:36:36.583Z,9.40
2024-01-29T14:39:03.527Z,9.30
2024-01-29T14:41:30.420Z,9.30
2024-01-29T14:43:57.376Z,9.10
2024-01-29T14:46:24.405Z,9.10
2024-01-29T14:48:51.355Z,9.00
2024-01-29T14:51:18.332Z,8.80
2024-01-29T14:53:45.919Z,8.70
2024-01-29T14:56:12.999Z,8.70
2024-01-29T14:58:39.946Z,8.50
2024-01-29T15:01:06.967Z,8.50
2024-01-29T15:03:34.043Z,8.40
2024-01-29T15:06:01.212Z,8.30
2024-01-29T15:08:28.533Z,8.20
2024-01-29T15:10:55.401Z,8.10
2024-01-29T15:13:22.288Z,8.00
2024-01-29T15:15:49.254Z,8.00
2024-01-29T15:18:16.445Z,7.90
2024-01-29T15:20:43.870Z,7.80
2024-01-29T15:23:10.909Z,7.70
2024-01-29T15:25:37.997Z,7.60
2024-01-29T15:28:07.073Z,7.60
2024-01-29T15:30:35.314Z,7.40
2024-01-29T15:33:02.327Z,7.30
2024-01-29T15:35:29.258Z,7.20
2024-01-29T15:37:56.205Z,7.10
2024-01-29T15:40:23.171Z,7.00
2024-01-29T15:42:52.076Z,6.90
2024-01-29T15:45:19.329Z,6.80
2024-01-29T15:47:46.277Z,6.80
2024-01-29T15:50:13.268Z,6.70
2024-01-29T15:52:40.253Z,6.60
2024-01-29T15:55:07.529Z,6.60
2024-01-29T15:57:34.623Z,6.60
2024-01-29T16:00:01.621Z,6.50
2024-01-29T16:02:28.539Z,6.50
2024-01-29T16:04:55.444Z,6.50
2024-01-29T16:07:22.427Z,6.50
2024-01-29T16:09:49.426Z,6.50
2024-01-29T16:12:16.508Z,6.50
2024-01-29T16:14:43.513Z,6.50
2024-01-29T16:17:11.279Z,6.50
2024-01-29T16:19:39.280Z,6.40
2024-01-29T16:22:06.387Z,6.40
2024-01-29T16:24:33.355Z,6.40
2024-01-29T16:27:00.371Z,6.30
2024-01-29T16:29:27.373Z,6.30
2024-01-29T16:31:54.429Z,6.30
2024-01-29T16:34:21.627Z,6.20
2024-01-29T16:36:48.569Z,6.20
2024-01-29T16:39:15.594Z,6.20
2024-01-29T16:41:42.543Z,6.20
2024-01-29T16:44:09.498Z,6.20
2024-01-29T16:46:41.566Z,6.10
2024-01-29T16:49:09.127Z,6.10
2024-01-29T16:51:36.825Z,6.10
2024-01-29T16:54:03.893Z,6.00
2024-01-29T16:56:32.435Z,6.00
2024-01-29T16:59:00.755Z,6.00
2024-01-29T17:01:28.944Z,5.90
2024-01-29T17:03:56.356Z,5.90
2024-01-29T17:06:23.743Z,5.80
2024-01-29T17:08:50.679Z,5.80
2024-01-29T17:11:17.597Z,5.80
2024-01-29T17:13:45.779Z,5.70
2024-01-29T17:16:12.941Z,5.80
2024-01-29T17:18:40.159Z,5.70
2024-01-29T17:21:10.777Z,5.80
2024-01-29T17:23:38.147Z,5.70
2024-01-29T17:26:05.126Z,5.70
2024-01-29T17:28:32.087Z,5.70
2024-01-29T17:30:59.012Z,5.70
2024-01-29T17:33:26.802Z,5.70
2024-01-29T17:35:54.420Z,5.70
2024-01-29T17:38:21.486Z,5.70
2024-01-29T17:40:48.498Z,5.80
2024-01-29T17:43:15.649Z,5.70
2024-01-29T17:45:42.837Z,5.60
2024-01-29T17:48:10.010Z,5.70
2024-01-29T17:50:37.476Z,5.60
2024-01-29T17:53:05.479Z,5.60
2024-01-29T17:55:33.986Z,5.50
2024-01-29T17:58:01.561Z,5.50
2024-01-29T18:00:28.949Z,5.50
2024-01-29T18:02:55.994Z,5.60
2024-01-29T18:05:23.045Z,6.30
2024-01-29T18:07:50.215Z,5.60
2024-01-29T18:10:17.388Z,5.70
2024-01-29T18:12:44.600Z,5.70
2024-01-29T18:15:11.530Z,5.70
2024-01-29T18:17:38.514Z,5.70
2024-01-29T18:20:06.498Z,5.70
2024-01-29T18:22:33.691Z,5.60
2024-01-29T18:25:01.094Z,5.60
2024-01-29T18:27:28.065Z,5.60
2024-01-29T18:29:54.990Z,5.60
2024-01-29T18:32:21.952Z,5.50
2024-01-29T18:34:48.965Z,5.60
2024-01-29T18:37:15.965Z,5.50
2024-01-29T18:39:43.031Z,5.50
2024-01-29T18:42:09.987Z,5.50
2024-01-29T18:44:36.871Z,5.40
2024-01-29T18:47:03.952Z,5.40
2024-01-29T18:49:30.992Z,5.40
2024-01-29T18:52:05.062Z,5.40
2024-01-29T18:54:32.281Z,5.50
2024-01-29T18:56:59.302Z,5.40
2024-01-29T18:59:26.279Z,5.40
2024-01-29T19:01:54.111Z,5.30
2024-01-29T19:04:21.318Z,5.30
2024-01-29T19:06:48.371Z,5.20
2024-01-29T19:09:15.369Z,5.20
2024-01-29T19:11:42.667Z,5.30
2024-01-29T19:14:09.672Z,5.20
2024-01-29T19:16:36.671Z,5.20
2024-01-29T19:19:03.741Z,5.20
2024-01-29T19:21:30.681Z,5.30
2024-01-29T19:23:57.822Z,5.30
2024-01-29T19:26:24.776Z,5.30
2024-01-29T19:28:51.698Z,5.40
2024-01-29T19:31:18.738Z,5.40
2024-01-29T19:33:56.453Z,5.40
2024-01-29T19:36:23.492Z,5.40
2024-01-29T19:38:50.401Z,5.40
2024-01-29T19:41:17.447Z,5.40
2024-01-29T19:43:44.419Z,5.40
2024-01-29T19:46:11.351Z,5.40
2024-01-29T19:48:39.542Z,5.40
2024-01-29T19:51:06.599Z,5.50
2024-01-29T19:53:38.595Z,5.60
2024-01-29T19:56:06.102Z,5.50
2024-01-29T19:58:33.109Z,5.50
2024-01-29T20:01:00.116Z,5.50
2024-01-29T20:03:36.428Z,5.50
2024-01-29T20:06:05.057Z,5.50
2024-01-29T20:08:32.052Z,5.50
2024-01-29T20:10:58.955Z,5.40
2024-01-29T20:13:25.936Z,5.50
2024-01-29T20:15:52.950Z,5.50
2024-01-29T20:18:19.891Z,5.60
2024-01-29T20:20:46.907Z,5.60
2024-01-29T20:23:13.804Z,5.60
2024-01-29T20:25:40.996Z,5.60
2024-01-29T20:28:07.942Z,5.60
2024-01-29T20:30:35.001Z,5.60
2024-01-29T20:33:02.117Z,5.60
2024-01-29T20:35:29.343Z,5.50
2024-01-29T20:37:56.848Z,5.50
2024-01-29T20:40:25.560Z,5.50
2024-01-29T20:42:52.489Z,5.50
2024-01-29T20:45:19.800Z,5.50
2024-01-29T20:47:53.304Z,5.50
2024-01-29T20:50:20.324Z,5.50
2024-01-29T20:52:47.217Z,5.50
2024-01-29T20:55:19.370Z,5.50
2024-01-29T20:57:47.149Z,5.60
2024-01-29T21:00:14.316Z,5.60
2024-01-29T21:02:41.258Z,5.50
2024-01-29T21:05:08.795Z,5.40
2024-01-29T21:07:36.331Z,5.40
2024-01-29T21:10:03.423Z,5.50
2024-01-29T21:12:30.434Z,5.50
2024-01-29T21:14:57.470Z,5.60
2024-01-29T21:17:24.495Z,5.50
2024-01-29T21:19:52.648Z,5.50
2024-01-29T21:22:19.670Z,5.50
2024-01-29T21:24:46.665Z,5.50
2024-01-29T21:27:14.575Z,5.40
2024-01-29T21:29:41.516Z,5.30
2024-01-29T21:32:10.178Z,5.30
2024-01-29T21:34:37.665Z,5.40
2024-01-29T21:37:04.847Z,5.40
2024-01-29T21:39:31.788Z,5.50
2024-01-29T21:41:58.745Z,5.50
2024-01-29T21:44:27.384Z,5.50
2024-01-29T21:46:54.528Z,5.50
2024-01-29T21:49:21.662Z,5.30
2024-01-29T21:51:48.641Z,5.40
2024-01-29T21:54:15.678Z,5.60
2024-01-29T21:56:42.678Z,5.50
2024-01-29T21:59:09.665Z,5.40
2024-01-29T22:01:40.516Z,5.40
2024-01-29T22:04:08.134Z,5.50
2024-01-29T22:06:35.392Z,5.50
2024-01-29T22:09:02.562Z,5.50
2024-01-29T22:11:29.554Z,5.50
2024-01-29T22:13:56.570Z,5.40
2024-01-29T22:16:25.476Z,5.40
2024-01-29T22:18:53.140Z,5.50
2024-01-29T22:21:20.586Z,5.50
2024-01-29T22:23:47.549Z,5.40
2024-01-29T22:26:14.557Z,5.30
2024-01-29T22:28:41.540Z,5.30
2024-01-29T22:31:10.446Z,5.30
2024-01-29T22:33:38.516Z,5.20
2024-01-29T22:36:07.317Z,5.20
2024-01-29T22:38:41.160Z,5.20
2024-01-29T22:41:08.173Z,5.00
2024-01-29T22:43:35.110Z,5.20
2024-01-29T22:46:02.339Z,5.10
2024-01-29T22:48:29.378Z,5.10
2024-01-29T22:50:56.386Z,5.20
2024-01-29T22:53:23.428Z,5.10
2024-01-29T22:55:50.275Z,5.20
2024-01-29T22:58:17.271Z,5.20
2024-01-29T23:00:44.843Z,5.30
2024-01-29T23:03:12.200Z,5.20
2024-01-29T23:05:39.201Z,5.10
2024-01-29T23:08:06.393Z,5.20
2024-01-29T23:10:33.341Z,5.10
2024-01-29T23:13:01.613Z,5.10
2024-01-29T23:15:28.481Z,5.10
2024-01-29T23:17:55.455Z,5.00
2024-01-29T23:20:22.573Z,5.00
2024-01-29T23:22:49.466Z,5.00
2024-01-29T23:25:16.704Z,4.80
2024-01-29T23:27:43.810Z,4.80
2024-01-29T23:30:11.057Z,4.90
2024-01-29T23:32:38.019Z,4.90
2024-01-29T23:35:05.302Z,4.90
2024-01-29T23:37:32.337Z,5.00
2024-01-29T23:39:59.243Z,4.90
2024-01-29T23:42:26.613Z,4.80
2024-01-29T23:44:53.541Z,4.90
2024-01-29T23:47:20.620Z,4.80
2024-01-29T23:49:47.706Z,4.80
2024-01-29T23:52:14.823Z,4.80
2024-01-29T23:54:41.769Z,4.90
2024-01-29T23:57:08.725Z,4.80
2024-01-29T23:59:35.916Z,4.70
